createdAt,value
2019-04-01T00:01:08.787Z,4.90
2019-04-01T00:03:53.581Z,4.90
2019-04-01T00:06:38.539Z,4.90
2019-04-01T00:09:35.675Z,4.90
2019-04-01T00:12:20.641Z,4.90
2019-04-01T00:15:05.740Z,4.90
2019-04-01T00:17:50.395Z,4.90
2019-04-01T00:20:38.258Z,4.80
2019-04-01T00:23:23.205Z,4.90
2019-04-01T00:26:14.536Z,4.90
2019-04-01T00:28:59.391Z,4.80
2019-04-01T00:31:44.090Z,4.80
2019-04-01T00:34:28.855Z,4.80
2019-04-01T00:37:13.756Z,4.80
2019-04-01T00:39:58.598Z,4.80
2019-04-01T00:42:51.407Z,4.80
2019-04-01T00:45:56.429Z,4.80
2019-04-01T00:48:41.038Z,4.70
2019-04-01T00:51:25.800Z,4.60
2019-04-01T00:54:10.819Z,4.60
2019-04-01T00:56:55.679Z,4.60
2019-04-01T00:59:40.591Z,4.50
2019-04-01T01:02:34.688Z,4.50
2019-04-01T01:05:19.560Z,4.50
2019-04-01T01:08:04.268Z,4.50
2019-04-01T01:10:49.276Z,4.50
2019-04-01T01:13:34.116Z,4.50
2019-04-01T01:16:22.276Z,4.50
2019-04-01T01:19:10.275Z,4.50
2019-04-01T01:21:55.102Z,4.50
2019-04-01T01:24:52.220Z,4.50
2019-04-01T01:27:37.108Z,4.50
2019-04-01T01:30:22.023Z,4.50
2019-04-01T01:33:06.855Z,4.50
2019-04-01T01:35:52.032Z,4.40
2019-04-01T01:38:36.695Z,4.40
2019-04-01T01:41:21.532Z,4.40
2019-04-01T01:44:12.603Z,4.40
2019-04-01T01:47:06.713Z,4.30
2019-04-01T01:49:51.472Z,4.30
2019-04-01T01:52:36.313Z,4.30
2019-04-01T01:55:21.220Z,4.20
2019-04-01T01:58:06.125Z,4.20
2019-04-01T02:00:52.724Z,4.10
2019-04-01T02:03:37.480Z,4.10
2019-04-01T02:06:22.444Z,4.10
2019-04-01T02:09:07.115Z,4.10
2019-04-01T02:11:51.876Z,4.10
2019-04-01T02:14:36.754Z,4.10
2019-04-01T02:17:21.444Z,4.10
2019-04-01T02:20:06.659Z,4.10
2019-04-01T02:22:51.312Z,4.10
2019-04-01T02:25:42.519Z,4.10
2019-04-01T02:28:27.762Z,4.10
2019-04-01T02:31:12.436Z,4.10
2019-04-01T02:33:57.326Z,4.10
2019-04-01T02:36:42.131Z,4.10
2019-04-01T02:39:30.083Z,4.10
2019-04-01T02:42:15.023Z,4.10
2019-04-01T02:44:59.769Z,4.10
2019-04-01T02:47:44.678Z,4.10
2019-04-01T02:50:29.434Z,4.00
2019-04-01T02:53:14.203Z,4.00
2019-04-01T02:55:59.016Z,4.10
2019-04-01T02:58:43.716Z,4.00
2019-04-01T03:01:28.462Z,4.00
2019-04-01T03:04:13.113Z,4.00
2019-04-01T03:06:58.187Z,4.00
2019-04-01T03:09:42.988Z,4.00
2019-04-01T03:12:40.043Z,4.00
2019-04-01T03:15:27.949Z,4.00
2019-04-01T03:18:12.929Z,4.00
2019-04-01T03:21:06.872Z,4.00
2019-04-01T03:23:51.508Z,4.00
2019-04-01T03:26:36.295Z,4.00
2019-04-01T03:29:21.173Z,3.90
2019-04-01T03:32:06.221Z,3.90
2019-04-01T03:34:50.960Z,3.90
2019-04-01T03:37:35.685Z,3.90
2019-04-01T03:40:20.715Z,3.90
2019-04-01T03:43:05.543Z,3.90
2019-04-01T03:45:50.438Z,3.90
2019-04-01T03:48:35.251Z,3.80
2019-04-01T03:51:20.084Z,3.80
2019-04-01T03:54:04.942Z,3.70
2019-04-01T03:56:52.707Z,3.70
2019-04-01T03:59:37.594Z,3.60
2019-04-01T04:02:22.314Z,3.60
2019-04-01T04:05:07.175Z,3.60
2019-04-01T04:07:52.071Z,3.50
2019-04-01T04:10:36.833Z,3.50
2019-04-01T04:13:21.915Z,3.50
2019-04-01T04:16:09.766Z,3.50
2019-04-01T04:18:54.616Z,3.50
2019-04-01T04:21:39.344Z,3.40
2019-04-01T04:24:24.125Z,3.40
2019-04-01T04:27:12.138Z,3.40
2019-04-01T04:29:56.940Z,3.30
2019-04-01T04:32:41.864Z,3.30
2019-04-01T04:35:26.548Z,3.20
2019-04-01T04:38:11.431Z,3.20
2019-04-01T04:40:56.204Z,3.20
2019-04-01T04:43:40.957Z,3.10
2019-04-01T04:46:25.880Z,3.10
2019-04-01T04:49:13.594Z,3.10
2019-04-01T04:52:13.816Z,3.00
2019-04-01T04:55:02.715Z,3.00
2019-04-01T04:57:47.104Z,3.00
2019-04-01T05:00:32.104Z,3.00
2019-04-01T05:03:16.849Z,3.00
2019-04-01T05:06:17.210Z,3.00
2019-04-01T05:09:01.899Z,3.00
2019-04-01T05:11:46.573Z,3.00
2019-04-01T05:14:34.248Z,3.00
2019-04-01T05:17:19.000Z,2.90
2019-04-01T05:20:22.360Z,2.90
2019-04-01T05:23:26.746Z,2.90
2019-04-01T05:26:11.162Z,2.80
2019-04-01T05:28:56.712Z,2.80
2019-04-01T05:31:43.296Z,2.80
2019-04-01T05:34:47.951Z,2.70
2019-04-01T05:37:32.980Z,2.70
2019-04-01T05:40:17.299Z,2.70
2019-04-01T05:43:21.387Z,2.70
2019-04-01T05:46:05.574Z,2.80
2019-04-01T05:48:50.073Z,2.80
2019-04-01T05:51:34.649Z,2.80
2019-04-01T05:54:25.414Z,2.90
2019-04-01T05:57:28.671Z,2.90
2019-04-01T06:00:15.262Z,3.00
2019-04-01T06:02:59.914Z,3.00
2019-04-01T06:06:03.216Z,3.10
2019-04-01T06:08:47.688Z,3.10
2019-04-01T06:11:32.304Z,3.20
2019-04-01T06:14:17.039Z,3.30
2019-04-01T06:17:01.685Z,3.30
2019-04-01T06:19:46.591Z,3.40
2019-04-01T06:22:31.671Z,3.40
2019-04-01T06:25:35.674Z,3.40
2019-04-01T06:28:23.331Z,3.40
2019-04-01T06:31:17.516Z,3.50
2019-04-01T06:34:02.786Z,3.50
2019-04-01T06:36:56.953Z,3.60
2019-04-01T06:39:41.831Z,3.70
2019-04-01T06:42:41.897Z,3.80
2019-04-01T06:45:26.904Z,3.90
2019-04-01T06:48:11.790Z,3.90
2019-04-01T06:51:12.202Z,4.00
2019-04-01T06:53:56.921Z,4.10
2019-04-01T06:56:41.781Z,4.20
2019-04-01T06:59:41.804Z,4.20
2019-04-01T07:02:26.668Z,4.30
2019-04-01T07:05:12.758Z,4.40
2019-04-01T07:08:10.077Z,4.50
2019-04-01T07:10:55.103Z,4.60
2019-04-01T07:13:42.853Z,4.70
2019-04-01T07:16:46.285Z,4.70
2019-04-01T07:19:43.447Z,4.80
2019-04-01T07:22:28.397Z,4.90
2019-04-01T07:25:13.154Z,5.00
2019-04-01T07:28:01.204Z,5.10
2019-04-01T07:31:04.566Z,5.20
2019-04-01T07:33:49.380Z,5.30
2019-04-01T07:36:34.208Z,5.30
2019-04-01T07:39:19.208Z,5.40
2019-04-01T07:42:04.037Z,5.50
2019-04-01T07:45:08.060Z,5.60
2019-04-01T07:47:59.411Z,5.70
2019-04-01T07:50:44.137Z,5.80
2019-04-01T07:53:38.350Z,5.90
2019-04-01T07:56:22.862Z,5.90
2019-04-01T07:59:07.759Z,6.00
2019-04-01T08:01:53.068Z,6.10
2019-04-01T08:04:38.191Z,6.20
2019-04-01T08:07:23.008Z,6.30
2019-04-01T08:10:08.083Z,6.40
2019-04-01T08:12:52.783Z,6.40
2019-04-01T08:15:37.652Z,6.50
2019-04-01T08:18:22.430Z,6.60
2019-04-01T08:21:26.567Z,6.70
2019-04-01T08:24:11.143Z,6.80
2019-04-01T08:27:07.348Z,6.90
2019-04-01T08:29:52.199Z,7.00
2019-04-01T08:32:37.209Z,7.10
2019-04-01T08:35:24.999Z,7.20
2019-04-01T08:38:13.078Z,7.30
2019-04-01T08:40:57.875Z,7.40
2019-04-01T08:43:43.257Z,7.50
2019-04-01T08:46:30.768Z,7.60
2019-04-01T08:49:15.493Z,7.70
2019-04-01T08:52:00.688Z,7.80
2019-04-01T08:54:45.340Z,7.90
2019-04-01T08:57:30.384Z,7.90
2019-04-01T09:00:15.292Z,8.00
2019-04-01T09:03:03.212Z,8.10
2019-04-01T09:05:47.993Z,8.10
2019-04-01T09:08:32.727Z,8.20
2019-04-01T09:11:17.812Z,8.30
2019-04-01T09:14:02.816Z,8.40
2019-04-01T09:17:05.950Z,8.40
2019-04-01T09:19:51.053Z,8.50
2019-04-01T09:22:38.773Z,8.60
2019-04-01T09:25:23.539Z,8.70
2019-04-01T09:28:17.576Z,8.80
2019-04-01T09:31:02.415Z,8.90
2019-04-01T09:33:47.280Z,9.00
2019-04-01T09:36:38.414Z,9.10
2019-04-01T09:39:29.699Z,9.20
2019-04-01T09:42:14.438Z,9.30
2019-04-01T09:44:59.169Z,9.50
2019-04-01T09:47:44.015Z,9.70
2019-04-01T09:50:28.802Z,9.90
2019-04-01T09:53:13.952Z,10.30
2019-04-01T09:55:58.943Z,11.10
2019-04-01T09:59:02.016Z,12.50
2019-04-01T10:02:05.401Z,16.30
2019-04-01T10:04:59.612Z,20.30
2019-04-01T10:07:53.739Z,23.50
2019-04-01T10:10:57.466Z,25.70
2019-04-01T10:13:42.512Z,27.30
2019-04-01T10:16:27.584Z,28.20
2019-04-01T10:19:21.878Z,27.60
2019-04-01T10:22:15.990Z,25.30
2019-04-01T10:25:19.338Z,22.40
2019-04-01T10:28:16.487Z,19.90
2019-04-01T10:31:01.328Z,18.10
2019-04-01T10:33:55.565Z,16.80
2019-04-01T10:36:40.533Z,15.80
2019-04-01T10:39:25.325Z,15.10
2019-04-01T10:42:16.540Z,14.50
2019-04-01T10:45:01.930Z,14.20
2019-04-01T10:47:46.778Z,13.90
2019-04-01T10:50:31.722Z,13.90
2019-04-01T10:53:19.606Z,14.00
2019-04-01T10:56:04.332Z,14.30
2019-04-01T10:58:52.232Z,15.00
2019-04-01T11:01:37.171Z,16.70
2019-04-01T11:04:22.057Z,19.40
2019-04-01T11:07:10.339Z,22.60
2019-04-01T11:09:58.083Z,25.50
2019-04-01T11:12:43.084Z,28.00
2019-04-01T11:15:27.925Z,29.70
2019-04-01T11:18:25.223Z,30.70
2019-04-01T11:21:09.946Z,31.40
2019-04-01T11:23:54.807Z,31.90
2019-04-01T11:26:39.584Z,32.20
2019-04-01T11:29:27.440Z,32.50
2019-04-01T11:32:13.608Z,32.20
2019-04-01T11:34:58.701Z,31.40
2019-04-01T11:37:43.661Z,30.40
2019-04-01T11:40:47.150Z,29.80
2019-04-01T11:43:50.370Z,29.60
2019-04-01T11:46:53.847Z,29.90
2019-04-01T11:49:39.252Z,30.20
2019-04-01T11:52:23.918Z,30.50
2019-04-01T11:55:12.019Z,30.50
2019-04-01T11:58:00.011Z,30.60
2019-04-01T12:00:44.886Z,30.10
2019-04-01T12:03:45.306Z,29.50
2019-04-01T12:06:29.766Z,28.70
2019-04-01T12:09:14.618Z,28.20
2019-04-01T12:11:59.492Z,27.90
2019-04-01T12:14:56.742Z,27.30
2019-04-01T12:17:56.963Z,26.80
2019-04-01T12:21:00.431Z,26.30
2019-04-01T12:23:45.598Z,25.30
2019-04-01T12:26:31.174Z,24.30
2019-04-01T12:29:31.411Z,23.40
2019-04-01T12:32:28.705Z,22.50
2019-04-01T12:35:29.074Z,22.10
2019-04-01T12:38:16.784Z,21.60
2019-04-01T12:41:01.672Z,21.40
2019-04-01T12:44:05.198Z,21.20
2019-04-01T12:46:49.780Z,21.00
2019-04-01T12:49:37.831Z,21.10
2019-04-01T12:52:23.102Z,21.30
2019-04-01T12:55:08.502Z,21.60
2019-04-01T12:58:12.489Z,21.70
2019-04-01T13:01:01.251Z,21.90
2019-04-01T13:03:46.234Z,22.10
2019-04-01T13:06:46.533Z,22.30
2019-04-01T13:09:37.674Z,22.90
2019-04-01T13:12:28.830Z,23.70
2019-04-01T13:15:32.974Z,24.40
2019-04-01T13:18:20.802Z,25.30
2019-04-01T13:21:05.642Z,26.10
2019-04-01T13:23:56.766Z,26.80
2019-04-01T13:26:56.789Z,27.20
2019-04-01T13:29:44.641Z,27.70
2019-04-01T13:32:29.639Z,28.10
2019-04-01T13:35:14.344Z,28.10
2019-04-01T13:38:17.784Z,28.40
2019-04-01T13:41:03.051Z,28.90
2019-04-01T13:44:00.131Z,29.20
2019-04-01T13:46:48.433Z,29.30
2019-04-01T13:49:50.574Z,29.60
2019-04-01T13:52:35.358Z,29.70
2019-04-01T13:55:29.524Z,29.50
2019-04-01T13:58:20.811Z,29.70
2019-04-01T14:01:05.726Z,30.00
2019-04-01T14:03:50.383Z,29.90
2019-04-01T14:06:53.840Z,29.80
2019-04-01T14:09:48.153Z,30.00
2019-04-01T14:12:39.256Z,30.10
2019-04-01T14:15:39.395Z,30.40
2019-04-01T14:18:24.191Z,30.50
2019-04-01T14:21:20.791Z,30.80
2019-04-01T14:24:07.956Z,30.90
2019-04-01T14:26:56.387Z,31.00
2019-04-01T14:29:49.084Z,31.30
2019-04-01T14:32:34.065Z,31.20
2019-04-01T14:35:18.629Z,31.20
2019-04-01T14:38:06.613Z,31.30
2019-04-01T14:40:51.438Z,31.40
2019-04-01T14:43:36.398Z,31.20
2019-04-01T14:46:24.234Z,30.70
2019-04-01T14:49:09.036Z,29.70
2019-04-01T14:52:12.596Z,28.30
2019-04-01T14:54:57.392Z,26.80
2019-04-01T14:58:01.134Z,25.70
2019-04-01T15:00:46.139Z,24.60
2019-04-01T15:03:30.975Z,23.80
2019-04-01T15:06:18.863Z,23.10
2019-04-01T15:09:05.360Z,22.50
2019-04-01T15:11:52.965Z,22.10
2019-04-01T15:14:37.849Z,21.70
2019-04-01T15:17:22.745Z,21.30
2019-04-01T15:20:11.152Z,20.90
2019-04-01T15:23:11.459Z,20.60
2019-04-01T15:26:05.684Z,20.20
2019-04-01T15:29:00.456Z,19.80
2019-04-01T15:31:45.792Z,19.50
2019-04-01T15:34:30.617Z,19.20
2019-04-01T15:37:18.630Z,19.10
2019-04-01T15:40:05.416Z,18.80
2019-04-01T15:42:50.317Z,18.50
2019-04-01T15:45:35.447Z,18.30
2019-04-01T15:48:23.736Z,18.10
2019-04-01T15:51:08.390Z,17.90
2019-04-01T15:54:11.896Z,17.80
2019-04-01T15:56:58.175Z,17.70
2019-04-01T15:59:43.380Z,17.60
2019-04-01T16:02:28.406Z,17.60
2019-04-01T16:05:22.757Z,17.50
2019-04-01T16:08:07.731Z,17.40
2019-04-01T16:11:05.285Z,17.30
2019-04-01T16:13:49.934Z,17.30
2019-04-01T16:16:36.170Z,17.30
2019-04-01T16:19:40.258Z,17.20
2019-04-01T16:22:25.397Z,17.20
2019-04-01T16:25:11.040Z,17.20
2019-04-01T16:28:05.243Z,17.20
2019-04-01T16:31:02.382Z,17.10
2019-04-01T16:33:47.265Z,17.10
2019-04-01T16:36:35.329Z,17.00
2019-04-01T16:39:20.119Z,17.00
2019-04-01T16:42:05.057Z,17.00
2019-04-01T16:44:54.180Z,16.90
2019-04-01T16:47:40.104Z,16.90
2019-04-01T16:50:28.396Z,16.80
2019-04-01T16:53:31.004Z,16.80
2019-04-01T16:56:15.873Z,16.70
2019-04-01T16:59:00.824Z,16.50
2019-04-01T17:01:45.673Z,16.30
2019-04-01T17:04:46.257Z,16.20
2019-04-01T17:07:47.048Z,16.10
2019-04-01T17:10:50.254Z,15.90
2019-04-01T17:13:50.710Z,15.80
2019-04-01T17:16:35.508Z,15.70
2019-04-01T17:19:20.365Z,15.60
2019-04-01T17:22:14.449Z,15.50
2019-04-01T17:25:17.856Z,15.30
2019-04-01T17:28:02.755Z,15.20
2019-04-01T17:30:50.376Z,15.10
2019-04-01T17:33:53.901Z,15.00
2019-04-01T17:36:39.270Z,14.90
2019-04-01T17:39:25.248Z,14.80
2019-04-01T17:42:10.116Z,14.70
2019-04-01T17:45:23.198Z,14.50
2019-04-01T17:48:08.724Z,14.40
2019-04-01T17:50:57.965Z,14.30
2019-04-01T17:54:00.978Z,14.20
2019-04-01T17:56:51.616Z,14.10
2019-04-01T17:59:48.793Z,14.00
2019-04-01T18:02:52.118Z,13.90
2019-04-01T18:05:55.274Z,13.80
2019-04-01T18:08:49.472Z,13.70
2019-04-01T18:11:43.606Z,13.60
2019-04-01T18:14:28.657Z,13.50
2019-04-01T18:17:32.527Z,13.40
2019-04-01T18:20:20.032Z,13.30
2019-04-01T18:23:04.389Z,13.20
2019-04-01T18:26:01.573Z,13.10
2019-04-01T18:28:58.715Z,13.00
2019-04-01T18:31:59.197Z,12.90
2019-04-01T18:34:50.711Z,12.80
2019-04-01T18:37:35.522Z,12.70
2019-04-01T18:40:32.512Z,12.70
2019-04-01T18:43:09.803Z,12.60
2019-04-01T18:45:57.821Z,12.60
2019-04-01T18:48:45.712Z,12.50
2019-04-01T18:51:36.516Z,12.40
2019-04-01T18:54:21.741Z,12.30
2019-04-01T18:57:06.623Z,12.30
2019-04-01T19:00:08.194Z,12.20
2019-04-01T19:02:55.476Z,12.10
2019-04-01T19:05:40.089Z,12.10
2019-04-01T19:08:43.528Z,12.00
2019-04-01T19:11:28.497Z,11.90
2019-04-01T19:14:16.325Z,11.80
2019-04-01T19:17:01.221Z,11.70
2019-04-01T19:19:48.539Z,11.70
2019-04-01T19:22:33.190Z,11.60
2019-04-01T19:25:25.745Z,11.50
2019-04-01T19:28:11.550Z,11.50
2019-04-01T19:30:59.168Z,11.40
2019-04-01T19:33:56.352Z,11.40
2019-04-01T19:36:50.555Z,11.30
2019-04-01T19:39:35.296Z,11.30
2019-04-01T19:42:20.120Z,11.20
2019-04-01T19:45:05.610Z,11.20
2019-04-01T19:47:50.382Z,11.10
2019-04-01T19:50:41.474Z,11.00
2019-04-01T19:53:44.823Z,10.90
2019-04-01T19:56:39.109Z,10.80
2019-04-01T19:59:39.253Z,10.80
2019-04-01T20:02:36.680Z,10.70
2019-04-01T20:05:21.618Z,10.70
2019-04-01T20:08:06.597Z,10.60
2019-04-01T20:11:04.389Z,10.60
2019-04-01T20:13:49.284Z,10.60
2019-04-01T20:16:34.146Z,10.50
2019-04-01T20:19:21.934Z,10.40
2019-04-01T20:22:07.086Z,10.40
2019-04-01T20:24:51.744Z,10.40
2019-04-01T20:27:36.817Z,10.40
2019-04-01T20:30:21.727Z,10.40
2019-04-01T20:33:17.071Z,10.40
2019-04-01T20:35:57.367Z,10.30
2019-04-01T20:38:42.952Z,10.30
2019-04-01T20:41:27.703Z,10.30
2019-04-01T20:44:12.840Z,10.20
2019-04-01T20:47:00.770Z,10.20
2019-04-01T20:49:45.462Z,10.20
2019-04-01T20:52:30.284Z,10.10
2019-04-01T20:55:15.048Z,10.10
2019-04-01T20:58:19.117Z,10.10
2019-04-01T21:01:04.020Z,10.10
2019-04-01T21:03:48.880Z,10.10
2019-04-01T21:06:50.091Z,10.00
2019-04-01T21:09:35.031Z,10.00
2019-04-01T21:12:20.050Z,9.90
2019-04-01T21:15:05.543Z,9.90
2019-04-01T21:17:51.119Z,9.90
2019-04-01T21:20:36.886Z,9.90
2019-04-01T21:23:21.684Z,9.80
2019-04-01T21:26:06.568Z,9.80
2019-04-01T21:28:54.449Z,9.70
2019-04-01T21:31:39.223Z,9.70
2019-04-01T21:34:24.016Z,9.70
2019-04-01T21:37:08.893Z,9.70
2019-04-01T21:39:58.207Z,9.70
2019-04-01T21:42:50.473Z,9.70
2019-04-01T21:45:38.929Z,9.70
2019-04-01T21:48:23.754Z,9.60
2019-04-01T21:51:08.741Z,9.60
2019-04-01T21:53:56.481Z,9.60
2019-04-01T21:56:41.401Z,9.50
2019-04-01T21:59:35.525Z,9.50
2019-04-01T22:02:39.027Z,9.50
2019-04-01T22:05:23.944Z,9.50
2019-04-01T22:08:11.613Z,9.40
2019-04-01T22:10:56.514Z,9.40
2019-04-01T22:13:44.498Z,9.30
2019-04-01T22:16:29.329Z,9.30
2019-04-01T22:19:20.402Z,9.20
2019-04-01T22:22:09.024Z,9.20
2019-04-01T22:24:53.779Z,9.10
2019-04-01T22:27:38.716Z,9.10
2019-04-01T22:30:23.445Z,9.10
2019-04-01T22:33:11.649Z,9.10
2019-04-01T22:35:56.908Z,9.00
2019-04-01T22:38:41.626Z,9.00
2019-04-01T22:41:26.413Z,8.90
2019-04-01T22:44:11.237Z,8.90
2019-04-01T22:46:56.167Z,8.80
2019-04-01T22:49:41.466Z,8.80
2019-04-01T22:52:26.888Z,8.70
2019-04-01T22:55:11.800Z,8.70
2019-04-01T22:57:59.569Z,8.70
2019-04-01T23:00:44.402Z,8.70
2019-04-01T23:03:32.382Z,8.60
2019-04-01T23:06:30.690Z,8.50
2019-04-01T23:09:15.813Z,8.50
2019-04-01T23:12:00.617Z,8.50
2019-04-01T23:15:01.131Z,8.50
2019-04-01T23:17:45.774Z,8.40
2019-04-01T23:20:30.502Z,8.40
2019-04-01T23:23:15.301Z,8.40
2019-04-01T23:26:00.169Z,8.50
2019-04-01T23:28:45.114Z,8.50
2019-04-01T23:31:29.677Z,8.50
2019-04-01T23:34:14.752Z,8.40
2019-04-01T23:36:59.465Z,8.40
2019-04-01T23:40:05.166Z,8.40
2019-04-01T23:42:50.430Z,8.40
2019-04-01T23:45:35.278Z,8.30
2019-04-01T23:48:20.171Z,8.30
2019-04-01T23:51:04.912Z,8.20
2019-04-01T23:53:49.760Z,8.20
2019-04-01T23:56:37.599Z,8.10
2019-04-01T23:59:22.358Z,8.00
